createdAt,value
2018-06-27T00:00:15.793Z,22.37
2018-06-27T00:00:41.369Z,22.44
2018-06-27T00:01:06.948Z,22.43
2018-06-27T00:01:32.479Z,22.43
2018-06-27T00:01:58.092Z,22.43
2018-06-27T00:02:23.684Z,22.43
2018-06-27T00:02:49.225Z,22.39
2018-06-27T00:03:14.795Z,22.44
2018-06-27T00:03:40.353Z,22.47
2018-06-27T00:04:05.923Z,22.41
2018-06-27T00:04:31.521Z,22.41
2018-06-27T00:04:57.096Z,22.43
2018-06-27T00:05:22.679Z,22.49
2018-06-27T00:05:48.242Z,22.43
2018-06-27T00:06:13.798Z,22.43
2018-06-27T00:06:39.386Z,22.38
2018-06-27T00:07:04.977Z,22.47
2018-06-27T00:07:30.535Z,22.46
2018-06-27T00:07:56.102Z,22.47
2018-06-27T00:08:21.688Z,22.44
2018-06-27T00:08:47.258Z,22.43
2018-06-27T00:09:12.815Z,22.46
2018-06-27T00:09:38.395Z,22.46
2018-06-27T00:10:03.975Z,22.41
2018-06-27T00:10:29.551Z,22.44
2018-06-27T00:10:55.112Z,22.46
2018-06-27T00:11:20.683Z,22.44
2018-06-27T00:11:46.245Z,22.41
2018-06-27T00:12:11.801Z,22.43
2018-06-27T00:12:37.386Z,22.39
2018-06-27T00:13:02.964Z,22.44
2018-06-27T00:13:28.575Z,22.46
2018-06-27T00:13:54.139Z,22.43
2018-06-27T00:14:19.678Z,22.37
2018-06-27T00:14:45.264Z,22.43
2018-06-27T00:15:10.867Z,22.49
2018-06-27T00:15:36.423Z,22.43
2018-06-27T00:16:02.005Z,22.43
2018-06-27T00:16:27.587Z,22.35
2018-06-27T00:16:53.150Z,22.43
2018-06-27T00:17:18.728Z,22.43
2018-06-27T00:17:44.303Z,22.39
2018-06-27T00:18:09.854Z,22.41
2018-06-27T00:18:35.413Z,22.43
2018-06-27T00:19:00.976Z,22.41
2018-06-27T00:19:26.622Z,22.44
2018-06-27T00:19:52.137Z,22.46
2018-06-27T00:20:17.702Z,22.38
2018-06-27T00:20:43.272Z,22.41
2018-06-27T00:21:08.862Z,22.41
2018-06-27T00:21:34.444Z,22.46
2018-06-27T00:22:00.019Z,22.37
2018-06-27T00:22:25.601Z,22.41
2018-06-27T00:22:51.180Z,22.47
2018-06-27T00:23:16.763Z,22.44
2018-06-27T00:23:42.330Z,22.43
2018-06-27T00:24:07.887Z,22.39
2018-06-27T00:24:33.450Z,22.44
2018-06-27T00:24:59.031Z,22.37
2018-06-27T00:25:24.587Z,22.35
2018-06-27T00:25:50.169Z,22.41
2018-06-27T00:26:15.724Z,22.37
2018-06-27T00:26:41.280Z,22.38
2018-06-27T00:27:06.862Z,22.43
2018-06-27T00:27:32.428Z,22.43
2018-06-27T00:27:57.994Z,22.38
2018-06-27T00:28:23.557Z,22.43
2018-06-27T00:28:49.124Z,22.38
2018-06-27T00:29:14.693Z,22.37
2018-06-27T00:29:40.278Z,22.41
2018-06-27T00:30:05.866Z,22.39
2018-06-27T00:30:31.517Z,22.39
2018-06-27T00:30:57.079Z,22.37
2018-06-27T00:31:22.638Z,22.34
2018-06-27T00:31:48.194Z,22.38
2018-06-27T00:32:13.744Z,22.35
2018-06-27T00:32:39.313Z,22.43
2018-06-27T00:33:04.868Z,22.44
2018-06-27T00:33:30.453Z,22.44
2018-06-27T00:33:56.075Z,22.35
2018-06-27T00:34:21.569Z,22.46
2018-06-27T00:34:47.195Z,22.37
2018-06-27T00:35:12.768Z,22.39
2018-06-27T00:35:38.340Z,22.38
2018-06-27T00:36:03.909Z,22.39
2018-06-27T00:36:29.992Z,22.38
2018-06-27T00:36:55.590Z,22.38
2018-06-27T00:37:21.163Z,22.39
2018-06-27T00:37:46.719Z,22.44
2018-06-27T00:38:12.296Z,22.41
2018-06-27T00:38:37.944Z,22.46
2018-06-27T00:39:03.476Z,22.41
2018-06-27T00:39:29.040Z,22.41
2018-06-27T00:39:54.617Z,22.43
2018-06-27T00:40:20.192Z,22.37
2018-06-27T00:40:45.791Z,22.38
2018-06-27T00:41:11.364Z,22.35
2018-06-27T00:41:36.921Z,22.34
2018-06-27T00:42:02.488Z,22.39
2018-06-27T00:42:28.067Z,22.34
2018-06-27T00:42:53.653Z,22.38
2018-06-27T00:43:19.229Z,22.43
2018-06-27T00:43:44.836Z,22.41
2018-06-27T00:44:10.396Z,22.38
2018-06-27T00:44:35.988Z,22.38
2018-06-27T00:45:01.569Z,22.44
2018-06-27T00:45:27.126Z,22.37
2018-06-27T00:45:52.696Z,22.35
2018-06-27T00:46:18.264Z,22.41
2018-06-27T00:46:43.862Z,22.37
2018-06-27T00:47:09.432Z,22.43
2018-06-27T00:47:35.047Z,22.35
2018-06-27T00:48:00.564Z,22.37
2018-06-27T00:48:26.149Z,22.35
2018-06-27T00:48:51.715Z,22.41
2018-06-27T00:49:17.300Z,22.35
2018-06-27T00:49:42.862Z,22.37
2018-06-27T00:50:08.431Z,22.43
2018-06-27T00:50:33.994Z,22.38
2018-06-27T00:50:59.558Z,22.35
2018-06-27T00:51:25.131Z,22.41
2018-06-27T00:51:50.683Z,22.43
2018-06-27T00:52:16.243Z,22.38
2018-06-27T00:52:41.817Z,22.38
2018-06-27T00:53:07.380Z,22.41
2018-06-27T00:53:32.944Z,22.38
2018-06-27T00:53:58.548Z,22.39
2018-06-27T00:54:24.106Z,22.37
2018-06-27T00:54:49.666Z,22.43
2018-06-27T00:55:15.257Z,22.34
2018-06-27T00:55:40.826Z,22.38
2018-06-27T00:56:06.375Z,22.34
2018-06-27T00:56:31.945Z,22.34
2018-06-27T00:56:57.548Z,22.41
2018-06-27T00:57:23.124Z,22.39
2018-06-27T00:57:48.672Z,22.38
2018-06-27T00:58:14.245Z,22.35
2018-06-27T00:58:39.816Z,22.41
2018-06-27T00:59:05.377Z,22.41
2018-06-27T00:59:30.977Z,22.37
2018-06-27T00:59:56.554Z,22.38
2018-06-27T01:00:22.119Z,22.38
2018-06-27T01:00:47.696Z,22.38
2018-06-27T01:01:13.274Z,22.39
2018-06-27T01:01:38.851Z,22.41
2018-06-27T01:02:04.438Z,22.35
2018-06-27T01:02:29.995Z,22.37
2018-06-27T01:02:55.558Z,22.35
2018-06-27T01:03:21.134Z,22.43
2018-06-27T01:03:46.697Z,22.41
2018-06-27T01:04:12.266Z,22.41
2018-06-27T01:04:37.833Z,22.41
2018-06-27T01:05:03.391Z,22.37
2018-06-27T01:05:28.944Z,22.41
2018-06-27T01:05:54.504Z,22.37
2018-06-27T01:06:20.071Z,22.43
2018-06-27T01:06:45.646Z,22.41
2018-06-27T01:07:11.244Z,22.34
2018-06-27T01:07:36.810Z,22.41
2018-06-27T01:08:02.388Z,22.37
2018-06-27T01:08:27.970Z,22.38
2018-06-27T01:08:53.519Z,22.43
2018-06-27T01:09:19.124Z,22.38
2018-06-27T01:09:44.688Z,22.38
2018-06-27T01:10:10.261Z,22.37
2018-06-27T01:10:35.877Z,22.43
2018-06-27T01:11:01.417Z,22.43
2018-06-27T01:11:26.986Z,22.41
2018-06-27T01:11:52.565Z,22.38
2018-06-27T01:12:18.095Z,22.39
2018-06-27T01:12:43.682Z,22.39
2018-06-27T01:13:09.241Z,22.43
2018-06-27T01:13:34.839Z,22.35
2018-06-27T01:14:00.358Z,22.43
2018-06-27T01:14:25.966Z,22.38
2018-06-27T01:14:51.550Z,22.41
2018-06-27T01:15:17.121Z,22.43
2018-06-27T01:15:42.687Z,22.38
2018-06-27T01:16:08.250Z,22.32
2018-06-27T01:16:33.821Z,22.39
2018-06-27T01:16:59.371Z,22.38
2018-06-27T01:17:24.955Z,22.37
2018-06-27T01:17:50.521Z,22.43
2018-06-27T01:18:16.082Z,22.38
2018-06-27T01:18:41.655Z,22.43
2018-06-27T01:19:07.247Z,22.39
2018-06-27T01:19:32.803Z,22.43
2018-06-27T01:19:58.382Z,22.41
2018-06-27T01:20:23.943Z,22.38
2018-06-27T01:20:49.517Z,22.41
2018-06-27T01:21:15.106Z,22.39
2018-06-27T01:21:40.703Z,22.38
2018-06-27T01:22:06.231Z,22.35
2018-06-27T01:22:31.793Z,22.38
2018-06-27T01:22:57.372Z,22.41
2018-06-27T01:23:23.005Z,22.41
2018-06-27T01:23:48.576Z,22.43
2018-06-27T01:24:14.131Z,22.41
2018-06-27T01:24:39.709Z,22.43
2018-06-27T01:25:05.272Z,22.38
2018-06-27T01:25:30.851Z,22.43
2018-06-27T01:25:56.433Z,22.39
2018-06-27T01:26:21.996Z,22.39
2018-06-27T01:26:47.568Z,22.38
2018-06-27T01:27:13.122Z,22.43
2018-06-27T01:27:38.688Z,22.38
2018-06-27T01:28:04.249Z,22.38
2018-06-27T01:28:29.845Z,22.39
2018-06-27T01:28:55.392Z,22.38
2018-06-27T01:29:20.936Z,22.44
2018-06-27T01:29:46.493Z,22.37
2018-06-27T01:30:12.078Z,22.38
2018-06-27T01:30:37.632Z,22.38
2018-06-27T01:31:03.192Z,22.38
2018-06-27T01:31:28.760Z,22.38
2018-06-27T01:31:54.345Z,22.38
2018-06-27T01:32:19.929Z,22.44
2018-06-27T01:32:45.483Z,22.37
2018-06-27T01:33:11.054Z,22.35
2018-06-27T01:33:36.618Z,22.38
2018-06-27T01:34:02.185Z,22.43
2018-06-27T01:34:27.753Z,22.43
2018-06-27T01:34:53.309Z,22.39
2018-06-27T01:35:18.872Z,22.39
2018-06-27T01:35:44.439Z,22.39
2018-06-27T01:36:10.017Z,22.38
2018-06-27T01:36:35.605Z,22.34
2018-06-27T01:37:01.169Z,22.39
2018-06-27T01:37:26.717Z,22.39
2018-06-27T01:37:52.287Z,22.38
2018-06-27T01:38:17.862Z,22.38
2018-06-27T01:38:43.444Z,22.39
2018-06-27T01:39:09.017Z,22.39
2018-06-27T01:39:34.575Z,22.43
2018-06-27T01:40:00.188Z,22.41
2018-06-27T01:40:25.705Z,22.43
2018-06-27T01:40:51.325Z,22.43
2018-06-27T01:41:16.894Z,22.39
2018-06-27T01:41:42.485Z,22.37
2018-06-27T01:42:08.075Z,22.38
2018-06-27T01:42:33.637Z,22.39
2018-06-27T01:42:59.200Z,22.44
2018-06-27T01:43:24.785Z,22.43
2018-06-27T01:43:50.351Z,22.41
2018-06-27T01:44:15.925Z,22.38
2018-06-27T01:44:41.499Z,22.44
2018-06-27T01:45:07.055Z,22.43
2018-06-27T01:45:32.667Z,22.41
2018-06-27T01:45:58.235Z,22.41
2018-06-27T01:46:23.785Z,22.37
2018-06-27T01:46:49.344Z,22.43
2018-06-27T01:47:14.899Z,22.41
2018-06-27T01:47:40.460Z,22.38
2018-06-27T01:48:06.026Z,22.38
2018-06-27T01:48:31.585Z,22.38
2018-06-27T01:48:57.144Z,22.38
2018-06-27T01:49:22.704Z,22.41
2018-06-27T01:49:48.287Z,22.41
2018-06-27T01:50:13.917Z,22.37
2018-06-27T01:50:39.480Z,22.38
2018-06-27T01:51:05.061Z,22.41
2018-06-27T01:51:30.639Z,22.41
2018-06-27T01:51:56.202Z,22.38
2018-06-27T01:52:21.763Z,22.37
2018-06-27T01:52:47.337Z,22.41
2018-06-27T01:53:12.904Z,22.37
2018-06-27T01:53:38.481Z,22.43
2018-06-27T01:54:04.034Z,22.38
2018-06-27T01:54:29.590Z,22.41
2018-06-27T01:54:55.157Z,22.39
2018-06-27T01:55:20.719Z,22.41
2018-06-27T01:55:46.295Z,22.38
2018-06-27T01:56:11.865Z,22.39
2018-06-27T01:56:37.440Z,22.39
2018-06-27T01:57:03.012Z,22.38
2018-06-27T01:57:28.599Z,22.39
2018-06-27T01:57:54.155Z,22.41
2018-06-27T01:58:19.730Z,22.43
2018-06-27T01:58:45.310Z,22.41
2018-06-27T01:59:10.882Z,22.35
2018-06-27T01:59:36.463Z,22.43
2018-06-27T02:00:02.013Z,22.39
2018-06-27T02:00:27.583Z,22.38
2018-06-27T02:00:53.165Z,22.39
2018-06-27T02:01:18.720Z,22.41
2018-06-27T02:01:44.286Z,22.43
2018-06-27T02:02:09.847Z,22.38
2018-06-27T02:02:35.402Z,22.39
2018-06-27T02:03:00.981Z,22.39
2018-06-27T02:03:26.546Z,22.28
2018-06-27T02:03:52.123Z,22.41
2018-06-27T02:04:17.685Z,22.38
2018-06-27T02:04:43.246Z,22.38
2018-06-27T02:05:08.807Z,22.41
2018-06-27T02:05:34.379Z,22.39
2018-06-27T02:05:59.945Z,22.43
2018-06-27T02:06:25.498Z,22.39
2018-06-27T02:06:51.087Z,22.39
2018-06-27T02:07:16.657Z,22.41
2018-06-27T02:07:42.202Z,22.35
2018-06-27T02:08:07.767Z,22.38
2018-06-27T02:08:33.344Z,22.41
2018-06-27T02:08:58.904Z,22.35
2018-06-27T02:09:24.471Z,22.35
2018-06-27T02:09:50.049Z,22.41
2018-06-27T02:10:15.647Z,22.35
2018-06-27T02:10:41.203Z,22.37
2018-06-27T02:11:06.779Z,22.37
2018-06-27T02:11:32.375Z,22.37
2018-06-27T02:11:57.964Z,22.39
2018-06-27T02:12:23.539Z,22.39
2018-06-27T02:12:49.155Z,22.35
2018-06-27T02:13:14.698Z,22.39
2018-06-27T02:13:40.347Z,22.39
2018-06-27T02:14:05.895Z,22.39
2018-06-27T02:14:31.476Z,22.38
2018-06-27T02:14:57.027Z,22.37
2018-06-27T02:15:22.581Z,22.39
2018-06-27T02:15:48.161Z,22.32
2018-06-27T02:16:13.709Z,22.41
2018-06-27T02:16:39.273Z,22.39
2018-06-27T02:17:04.861Z,22.43
2018-06-27T02:17:30.423Z,22.38
2018-06-27T02:17:56.004Z,22.39
2018-06-27T02:18:21.557Z,22.37
2018-06-27T02:18:47.185Z,22.37
2018-06-27T02:19:12.742Z,22.38
2018-06-27T02:19:38.308Z,22.41
2018-06-27T02:20:03.886Z,22.43
2018-06-27T02:20:29.455Z,22.38
2018-06-27T02:20:55.013Z,22.39
2018-06-27T02:21:20.614Z,22.39
2018-06-27T02:21:46.190Z,22.39
2018-06-27T02:22:11.764Z,22.34
2018-06-27T02:22:37.342Z,22.39
2018-06-27T02:23:02.903Z,22.39
2018-06-27T02:23:28.484Z,22.41
2018-06-27T02:23:54.052Z,22.37
2018-06-27T02:24:19.609Z,22.43
2018-06-27T02:24:45.171Z,22.41
2018-06-27T02:25:10.749Z,22.38
2018-06-27T02:25:36.328Z,22.32
2018-06-27T02:26:01.910Z,22.35
2018-06-27T02:26:27.479Z,22.39
2018-06-27T02:26:53.094Z,22.39
2018-06-27T02:27:18.662Z,22.37
2018-06-27T02:27:44.252Z,22.37
2018-06-27T02:28:09.838Z,22.39
2018-06-27T02:28:35.416Z,22.31
2018-06-27T02:29:00.972Z,22.38
2018-06-27T02:29:26.572Z,22.38
2018-06-27T02:29:52.154Z,22.32
2018-06-27T02:30:17.702Z,22.38
2018-06-27T02:30:43.277Z,22.39
2018-06-27T02:31:08.819Z,22.37
2018-06-27T02:31:34.400Z,22.35
2018-06-27T02:31:59.961Z,22.34
2018-06-27T02:32:25.515Z,22.41
2018-06-27T02:32:51.077Z,22.39
2018-06-27T02:33:16.677Z,22.35
2018-06-27T02:33:42.331Z,22.34
2018-06-27T02:34:07.931Z,22.37
2018-06-27T02:34:33.506Z,22.38
2018-06-27T02:34:59.070Z,22.34
2018-06-27T02:35:24.620Z,22.32
2018-06-27T02:35:50.181Z,22.38
2018-06-27T02:36:15.758Z,22.35
2018-06-27T02:36:41.324Z,22.37
2018-06-27T02:37:06.912Z,22.38
2018-06-27T02:37:32.607Z,22.32
2018-06-27T02:37:58.161Z,22.32
2018-06-27T02:38:23.761Z,22.34
2018-06-27T02:38:49.340Z,22.34
2018-06-27T02:39:14.911Z,22.35
2018-06-27T02:39:40.472Z,22.29
2018-06-27T02:40:06.051Z,22.34
2018-06-27T02:40:31.619Z,22.38
2018-06-27T02:40:57.175Z,22.38
2018-06-27T02:41:22.746Z,22.32
2018-06-27T02:41:48.316Z,22.38
2018-06-27T02:42:13.906Z,22.32
2018-06-27T02:42:39.475Z,22.29
2018-06-27T02:43:05.063Z,22.41
2018-06-27T02:43:30.649Z,22.29
2018-06-27T02:43:56.251Z,22.32
2018-06-27T02:44:21.832Z,22.37
2018-06-27T02:44:47.391Z,22.41
2018-06-27T02:45:12.968Z,22.37
2018-06-27T02:45:38.544Z,22.38
2018-06-27T02:46:04.119Z,22.41
2018-06-27T02:46:29.667Z,22.31
2018-06-27T02:46:55.246Z,22.34
2018-06-27T02:47:20.824Z,22.35
2018-06-27T02:47:46.365Z,22.37
2018-06-27T02:48:11.952Z,22.35
2018-06-27T02:48:37.489Z,22.37
2018-06-27T02:49:03.064Z,22.37
2018-06-27T02:49:28.641Z,22.31
2018-06-27T02:49:54.309Z,22.31
2018-06-27T02:50:19.786Z,22.34
2018-06-27T02:50:45.386Z,22.32
2018-06-27T02:51:10.950Z,22.37
2018-06-27T02:51:36.519Z,22.38
2018-06-27T02:52:02.088Z,22.35
2018-06-27T02:52:27.672Z,22.32
2018-06-27T02:52:53.240Z,22.38
2018-06-27T02:53:18.820Z,22.31
2018-06-27T02:53:44.391Z,22.37
2018-06-27T02:54:09.962Z,22.34
2018-06-27T02:54:35.541Z,22.37
2018-06-27T02:55:01.115Z,22.37
2018-06-27T02:55:26.732Z,22.32
2018-06-27T02:55:52.274Z,22.27
2018-06-27T02:56:17.835Z,22.35
2018-06-27T02:56:43.410Z,22.34
2018-06-27T02:57:08.988Z,22.31
2018-06-27T02:57:34.544Z,22.41
2018-06-27T02:58:00.108Z,22.29
2018-06-27T02:58:25.662Z,22.34
2018-06-27T02:58:51.299Z,22.27
2018-06-27T02:59:16.831Z,22.31
2018-06-27T02:59:42.390Z,22.37
2018-06-27T03:00:07.966Z,22.29
2018-06-27T03:00:33.512Z,22.29
2018-06-27T03:00:59.082Z,22.35
2018-06-27T03:01:24.627Z,22.27
2018-06-27T03:01:50.202Z,22.34
2018-06-27T03:02:15.785Z,22.29
2018-06-27T03:02:41.320Z,22.34
2018-06-27T03:03:06.892Z,22.27
2018-06-27T03:03:32.446Z,22.29
2018-06-27T03:03:57.993Z,22.34
2018-06-27T03:04:23.546Z,22.25
2018-06-27T03:04:49.112Z,22.29
2018-06-27T03:05:14.691Z,22.28
2018-06-27T03:05:40.266Z,22.31
2018-06-27T03:06:05.810Z,22.27
2018-06-27T03:06:31.390Z,22.35
2018-06-27T03:06:56.966Z,22.32
2018-06-27T03:07:22.520Z,22.35
2018-06-27T03:07:48.070Z,22.29
2018-06-27T03:08:13.637Z,22.37
2018-06-27T03:08:39.210Z,22.27
2018-06-27T03:09:04.800Z,22.28
2018-06-27T03:09:30.356Z,22.31
2018-06-27T03:09:55.916Z,22.37
2018-06-27T03:10:21.487Z,22.28
2018-06-27T03:10:47.063Z,22.25
2018-06-27T03:11:12.608Z,22.25
2018-06-27T03:11:38.179Z,22.27
2018-06-27T03:12:03.750Z,22.23
2018-06-27T03:12:29.312Z,22.31
2018-06-27T03:12:54.887Z,22.34
2018-06-27T03:13:20.440Z,22.27
2018-06-27T03:13:46.026Z,22.32
2018-06-27T03:14:11.592Z,22.27
2018-06-27T03:14:37.214Z,22.25
2018-06-27T03:15:02.785Z,22.32
2018-06-27T03:15:28.376Z,22.35
2018-06-27T03:15:53.931Z,22.34
2018-06-27T03:16:19.476Z,22.34
2018-06-27T03:16:45.043Z,22.34
2018-06-27T03:17:10.610Z,22.32
2018-06-27T03:17:36.180Z,22.35
2018-06-27T03:18:01.765Z,22.29
2018-06-27T03:18:27.333Z,22.27
2018-06-27T03:18:52.904Z,22.27
2018-06-27T03:19:18.475Z,22.29
2018-06-27T03:19:44.051Z,22.31
2018-06-27T03:20:09.611Z,22.28
2018-06-27T03:20:35.170Z,22.28
2018-06-27T03:21:00.728Z,22.23
2018-06-27T03:21:26.296Z,22.37
2018-06-27T03:21:51.870Z,22.29
2018-06-27T03:22:17.422Z,22.31
2018-06-27T03:22:42.976Z,22.29
2018-06-27T03:23:08.555Z,22.25
2018-06-27T03:23:34.134Z,22.29
2018-06-27T03:23:59.716Z,22.32
2018-06-27T03:24:25.272Z,22.27
2018-06-27T03:24:50.921Z,22.29
2018-06-27T03:25:16.501Z,22.27
2018-06-27T03:25:42.073Z,22.23
2018-06-27T03:26:07.632Z,22.31
2018-06-27T03:26:33.189Z,22.29
2018-06-27T03:26:58.724Z,22.34
2018-06-27T03:27:24.298Z,22.27
2018-06-27T03:27:49.869Z,22.32
2018-06-27T03:28:15.443Z,22.27
2018-06-27T03:28:41.022Z,22.35
2018-06-27T03:29:06.592Z,22.23
2018-06-27T03:29:32.171Z,22.32
2018-06-27T03:29:57.752Z,22.32
2018-06-27T03:30:23.323Z,22.29
2018-06-27T03:30:48.886Z,22.31
2018-06-27T03:31:14.482Z,22.27
2018-06-27T03:31:40.063Z,22.28
2018-06-27T03:32:05.638Z,22.28
2018-06-27T03:32:31.204Z,22.25
2018-06-27T03:32:56.756Z,22.32
2018-06-27T03:33:22.342Z,22.25
2018-06-27T03:33:47.967Z,22.29
2018-06-27T03:34:13.476Z,22.23
2018-06-27T03:34:39.054Z,22.35
2018-06-27T03:35:04.620Z,22.27
2018-06-27T03:35:30.190Z,22.28
2018-06-27T03:35:55.754Z,22.25
2018-06-27T03:36:21.331Z,22.25
2018-06-27T03:36:46.880Z,22.32
2018-06-27T03:37:12.446Z,22.31
2018-06-27T03:37:38.000Z,22.35
2018-06-27T03:38:03.587Z,22.27
2018-06-27T03:38:29.161Z,22.32
2018-06-27T03:38:54.737Z,22.32
2018-06-27T03:39:20.284Z,22.28
2018-06-27T03:39:45.866Z,22.28
2018-06-27T03:40:11.438Z,22.27
2018-06-27T03:40:37.004Z,22.28
2018-06-27T03:41:02.604Z,22.31
2018-06-27T03:41:28.182Z,22.28
2018-06-27T03:41:53.777Z,22.27
2018-06-27T03:42:19.379Z,22.34
2018-06-27T03:42:44.927Z,22.32
2018-06-27T03:43:10.492Z,22.29
2018-06-27T03:43:36.067Z,22.32
2018-06-27T03:44:01.626Z,22.23
2018-06-27T03:44:27.240Z,22.23
2018-06-27T03:44:52.792Z,22.29
2018-06-27T03:45:18.379Z,22.35
2018-06-27T03:45:43.944Z,22.32
2018-06-27T03:46:09.510Z,22.27
2018-06-27T03:46:35.077Z,22.29
2018-06-27T03:47:00.649Z,22.29
2018-06-27T03:47:26.217Z,22.25
2018-06-27T03:47:51.787Z,22.25
2018-06-27T03:48:17.362Z,22.23
2018-06-27T03:48:42.923Z,22.25
2018-06-27T03:49:08.498Z,22.32
2018-06-27T03:49:34.070Z,22.27
2018-06-27T03:49:59.632Z,22.31
2018-06-27T03:50:25.186Z,22.27
2018-06-27T03:50:50.750Z,22.32
2018-06-27T03:51:16.319Z,22.28
2018-06-27T03:51:41.899Z,22.23
2018-06-27T03:52:07.440Z,22.23
2018-06-27T03:52:32.994Z,22.25
2018-06-27T03:52:58.566Z,22.37
2018-06-27T03:53:24.176Z,22.29
2018-06-27T03:53:49.751Z,22.28
2018-06-27T03:54:15.332Z,22.34
2018-06-27T03:54:40.913Z,22.31
2018-06-27T03:55:06.480Z,22.32
2018-06-27T03:55:32.068Z,22.25
2018-06-27T03:55:57.620Z,22.28
2018-06-27T03:56:23.193Z,22.32
2018-06-27T03:56:48.776Z,22.31
2018-06-27T03:57:14.337Z,22.25
2018-06-27T03:57:39.902Z,22.32
2018-06-27T03:58:05.488Z,22.25
2018-06-27T03:58:31.056Z,22.23
2018-06-27T03:58:56.689Z,22.27
2018-06-27T03:59:22.188Z,22.32
2018-06-27T03:59:47.782Z,22.31
2018-06-27T04:00:13.368Z,22.25
2018-06-27T04:00:38.966Z,22.23
2018-06-27T04:01:04.544Z,22.23
2018-06-27T04:01:30.100Z,22.28
2018-06-27T04:01:55.723Z,22.29
2018-06-27T04:02:21.283Z,22.27
2018-06-27T04:02:46.877Z,22.27
2018-06-27T04:03:12.438Z,22.28
2018-06-27T04:03:38.028Z,22.23
2018-06-27T04:04:03.576Z,22.28
2018-06-27T04:04:29.142Z,22.32
2018-06-27T04:04:54.686Z,22.29
2018-06-27T04:05:20.292Z,22.29
2018-06-27T04:05:45.880Z,22.23
2018-06-27T04:06:11.462Z,22.29
2018-06-27T04:06:37.059Z,22.29
2018-06-27T04:07:02.614Z,22.23
2018-06-27T04:07:28.180Z,22.25
2018-06-27T04:07:53.746Z,22.29
2018-06-27T04:08:19.388Z,22.27
2018-06-27T04:08:44.934Z,22.23
2018-06-27T04:09:10.514Z,22.28
2018-06-27T04:09:36.085Z,22.25
2018-06-27T04:10:01.664Z,22.29
2018-06-27T04:10:27.242Z,22.25
2018-06-27T04:10:52.839Z,22.23
2018-06-27T04:11:18.394Z,22.27
2018-06-27T04:11:43.964Z,22.19
2018-06-27T04:12:09.537Z,22.23
2018-06-27T04:12:35.142Z,22.31
2018-06-27T04:13:00.776Z,22.25
2018-06-27T04:13:26.379Z,22.32
2018-06-27T04:13:51.809Z,22.32
2018-06-27T04:14:17.377Z,22.31
2018-06-27T04:14:42.963Z,22.22
2018-06-27T04:15:08.542Z,22.25
2018-06-27T04:15:34.102Z,22.35
2018-06-27T04:15:59.709Z,22.35
2018-06-27T04:16:25.234Z,22.23
2018-06-27T04:16:50.828Z,22.23
2018-06-27T04:17:16.399Z,22.25
2018-06-27T04:17:41.975Z,22.31
2018-06-27T04:18:07.546Z,22.28
2018-06-27T04:18:33.116Z,22.22
2018-06-27T04:18:58.678Z,22.23
2018-06-27T04:19:24.276Z,22.28
2018-06-27T04:19:49.861Z,22.32
2018-06-27T04:20:15.449Z,22.32
2018-06-27T04:20:41.007Z,22.29
2018-06-27T04:21:06.557Z,22.31
2018-06-27T04:21:32.112Z,22.22
2018-06-27T04:21:57.673Z,22.23
2018-06-27T04:22:23.271Z,22.28
2018-06-27T04:22:48.879Z,22.23
2018-06-27T04:23:14.466Z,22.25
2018-06-27T04:23:40.046Z,22.29
2018-06-27T04:24:05.662Z,22.22
2018-06-27T04:24:31.246Z,22.27
2018-06-27T04:24:56.867Z,22.23
2018-06-27T04:25:22.410Z,22.28
2018-06-27T04:25:47.941Z,22.27
2018-06-27T04:26:13.503Z,22.29
2018-06-27T04:26:39.060Z,22.28
2018-06-27T04:27:04.636Z,22.23
2018-06-27T04:27:30.220Z,22.27
2018-06-27T04:27:55.768Z,22.32
2018-06-27T04:28:21.367Z,22.23
2018-06-27T04:28:46.947Z,22.28
2018-06-27T04:29:12.567Z,22.32
2018-06-27T04:29:38.158Z,22.28
2018-06-27T04:30:03.753Z,22.25
2018-06-27T04:30:29.311Z,22.32
2018-06-27T04:30:54.873Z,22.28
2018-06-27T04:31:20.449Z,22.32
2018-06-27T04:31:46.028Z,22.28
2018-06-27T04:32:11.601Z,22.22
2018-06-27T04:32:37.183Z,22.25
2018-06-27T04:33:02.756Z,22.29
2018-06-27T04:33:28.324Z,22.25
2018-06-27T04:33:53.884Z,22.29
2018-06-27T04:34:19.459Z,22.35
2018-06-27T04:34:45.044Z,22.27
2018-06-27T04:35:10.624Z,22.32
2018-06-27T04:35:36.200Z,22.27
2018-06-27T04:36:01.824Z,22.32
2018-06-27T04:36:27.331Z,22.29
2018-06-27T04:36:52.927Z,22.34
2018-06-27T04:37:18.489Z,22.23
2018-06-27T04:37:44.056Z,22.28
2018-06-27T04:38:09.629Z,22.31
2018-06-27T04:38:35.188Z,22.25
2018-06-27T04:39:00.757Z,22.32
2018-06-27T04:39:26.343Z,22.29
2018-06-27T04:39:51.920Z,22.31
2018-06-27T04:40:17.480Z,22.27
2018-06-27T04:40:43.061Z,22.34
2018-06-27T04:41:08.620Z,22.23
2018-06-27T04:41:34.185Z,22.29
2018-06-27T04:41:59.734Z,22.31
2018-06-27T04:42:25.305Z,22.23
2018-06-27T04:42:50.870Z,22.31
2018-06-27T04:43:16.452Z,22.31
2018-06-27T04:43:42.027Z,22.27
2018-06-27T04:44:07.613Z,22.31
2018-06-27T04:44:33.251Z,22.32
2018-06-27T04:44:58.834Z,22.31
2018-06-27T04:45:24.415Z,22.23
2018-06-27T04:45:50.036Z,22.31
2018-06-27T04:46:15.614Z,22.23
2018-06-27T04:46:41.200Z,22.29
2018-06-27T04:47:06.786Z,22.2
2018-06-27T04:47:32.338Z,22.28
2018-06-27T04:47:57.918Z,22.27
2018-06-27T04:48:23.487Z,22.27
2018-06-27T04:48:49.023Z,22.27
2018-06-27T04:49:14.637Z,22.32
2018-06-27T04:49:40.203Z,22.29
2018-06-27T04:50:05.848Z,22.34
2018-06-27T04:50:31.416Z,22.39
2018-06-27T04:50:57.010Z,22.27
2018-06-27T04:51:22.575Z,22.31
2018-06-27T04:51:48.129Z,22.34
2018-06-27T04:52:13.720Z,22.31
2018-06-27T04:52:39.299Z,22.32
2018-06-27T04:53:04.863Z,22.32
2018-06-27T04:53:30.432Z,22.32
2018-06-27T04:53:56.002Z,22.27
2018-06-27T04:54:21.579Z,22.31
2018-06-27T04:54:47.190Z,22.32
2018-06-27T04:55:12.720Z,22.35
2018-06-27T04:55:38.290Z,22.23
2018-06-27T04:56:03.872Z,22.34
2018-06-27T04:56:29.423Z,22.31
2018-06-27T04:56:55.002Z,22.34
2018-06-27T04:57:20.557Z,22.31
2018-06-27T04:57:46.117Z,22.38
2018-06-27T04:58:11.672Z,22.37
2018-06-27T04:58:37.240Z,22.28
2018-06-27T04:59:02.840Z,22.29
2018-06-27T04:59:28.414Z,22.34
2018-06-27T04:59:53.985Z,22.27
2018-06-27T05:00:19.547Z,22.29
2018-06-27T05:00:45.129Z,22.35
2018-06-27T05:01:10.705Z,22.34
2018-06-27T05:01:36.331Z,22.29
2018-06-27T05:02:01.918Z,22.31
2018-06-27T05:02:27.414Z,22.29
2018-06-27T05:02:52.987Z,22.34
2018-06-27T05:03:18.544Z,22.34
2018-06-27T05:03:44.110Z,22.27
2018-06-27T05:04:09.672Z,22.31
2018-06-27T05:04:35.235Z,22.31
2018-06-27T05:05:00.783Z,22.38
2018-06-27T05:05:26.377Z,22.32
2018-06-27T05:05:51.931Z,22.28
2018-06-27T05:06:17.507Z,22.41
2018-06-27T05:06:43.078Z,22.37
2018-06-27T05:07:08.626Z,22.32
2018-06-27T05:07:34.227Z,22.35
2018-06-27T05:07:59.821Z,22.39
2018-06-27T05:08:25.468Z,22.39
2018-06-27T05:08:51.029Z,22.31
2018-06-27T05:09:16.601Z,22.38
2018-06-27T05:09:42.229Z,22.39
2018-06-27T05:10:07.834Z,22.38
2018-06-27T05:10:33.405Z,22.39
2018-06-27T05:10:58.976Z,22.35
2018-06-27T05:11:24.553Z,22.32
2018-06-27T05:11:50.112Z,22.35
2018-06-27T05:12:15.704Z,22.39
2018-06-27T05:12:41.262Z,22.38
2018-06-27T05:13:06.828Z,22.34
2018-06-27T05:13:32.407Z,22.38
2018-06-27T05:13:57.997Z,22.37
2018-06-27T05:14:23.551Z,22.39
2018-06-27T05:14:49.125Z,22.39
2018-06-27T05:15:14.699Z,22.39
2018-06-27T05:15:40.273Z,22.41
2018-06-27T05:16:05.868Z,22.38
2018-06-27T05:16:31.408Z,22.37
2018-06-27T05:16:56.989Z,22.39
2018-06-27T05:17:22.585Z,22.41
2018-06-27T05:17:48.169Z,22.37
2018-06-27T05:18:13.763Z,22.38
2018-06-27T05:18:39.327Z,22.35
2018-06-27T05:19:04.899Z,22.37
2018-06-27T05:19:30.497Z,22.35
2018-06-27T05:19:56.109Z,22.39
2018-06-27T05:20:21.679Z,22.29
2018-06-27T05:20:47.298Z,22.35
2018-06-27T05:21:12.860Z,22.35
2018-06-27T05:21:38.411Z,22.29
2018-06-27T05:22:04.054Z,22.39
2018-06-27T05:22:29.627Z,22.27
2018-06-27T05:22:55.222Z,22.38
2018-06-27T05:23:20.778Z,22.29
2018-06-27T05:23:46.354Z,22.29
2018-06-27T05:24:11.905Z,22.31
2018-06-27T05:24:37.496Z,22.37
2018-06-27T05:25:03.099Z,22.39
2018-06-27T05:25:28.693Z,22.37
2018-06-27T05:25:54.271Z,22.27
2018-06-27T05:26:19.858Z,22.38
2018-06-27T05:26:45.431Z,22.31
2018-06-27T05:27:10.993Z,22.35
2018-06-27T05:27:36.715Z,22.39
2018-06-27T05:28:02.160Z,22.37
2018-06-27T05:28:27.731Z,22.28
2018-06-27T05:28:53.299Z,22.37
2018-06-27T05:29:18.871Z,22.38